createdAt,value
2022-08-16T00:02:52.723Z,68.32
2022-08-16T00:05:21.101Z,67.44
2022-08-16T00:07:49.731Z,66.99
2022-08-16T00:10:25.887Z,66.67
2022-08-16T00:12:53.732Z,65.43
2022-08-16T00:15:50.963Z,65.58
2022-08-16T00:18:15.191Z,64.05
2022-08-16T00:20:43.314Z,64.71
2022-08-16T00:23:11.609Z,66.30
2022-08-16T00:26:33.536Z,66.39
2022-08-16T00:28:28.549Z,65.70
2022-08-16T00:30:59.197Z,66.47
2022-08-16T00:33:28.729Z,67.31
2022-08-16T00:35:58.580Z,67.73
2022-08-16T00:38:40.039Z,68.07
2022-08-16T00:41:09.638Z,68.25
2022-08-16T00:43:43.465Z,68.38
2022-08-16T00:46:33.198Z,67.71
2022-08-16T00:49:04.683Z,66.49
2022-08-16T00:51:33.609Z,67.17
2022-08-16T00:54:01.868Z,67.62
2022-08-16T00:56:57.474Z,66.97
2022-08-16T00:59:21.719Z,67.71
2022-08-16T01:01:51.752Z,67.89
2022-08-16T01:04:28.950Z,68.03
2022-08-16T01:07:01.714Z,68.18
2022-08-16T01:09:34.205Z,68.24
2022-08-16T01:12:03.200Z,68.22
2022-08-16T01:14:35.752Z,68.44
2022-08-16T01:17:03.872Z,68.70
2022-08-16T01:19:40.766Z,68.89
2022-08-16T01:22:48.692Z,68.75
2022-08-16T01:24:57.684Z,67.99
2022-08-16T01:27:34.350Z,67.80
2022-08-16T01:30:19.760Z,67.50
2022-08-16T01:33:01.186Z,68.41
2022-08-16T01:35:35.023Z,68.99
2022-08-16T01:38:25.736Z,68.69
2022-08-16T01:40:55.202Z,68.44
2022-08-16T01:43:24.529Z,68.25
2022-08-16T01:45:57.591Z,68.28
2022-08-16T01:48:27.630Z,68.54
2022-08-16T01:51:16.419Z,68.65
2022-08-16T01:53:44.082Z,68.71
2022-08-16T01:56:25.897Z,68.75
2022-08-16T01:58:57.892Z,68.95
2022-08-16T02:01:28.190Z,69.10
2022-08-16T02:03:58.674Z,69.20
2022-08-16T02:06:45.998Z,69.27
2022-08-16T02:09:17.891Z,69.35
2022-08-16T02:11:53.353Z,69.63
2022-08-16T02:14:26.309Z,69.77
2022-08-16T02:16:58.184Z,70.00
2022-08-16T02:19:59.232Z,70.01
2022-08-16T02:22:35.934Z,69.61
2022-08-16T02:25:07.136Z,68.67
2022-08-16T02:27:41.893Z,68.86
2022-08-16T02:30:36.998Z,68.99
2022-08-16T02:33:03.738Z,68.99
2022-08-16T02:35:32.189Z,69.20
2022-08-16T02:38:01.641Z,69.45
2022-08-16T02:40:37.376Z,69.34
2022-08-16T02:43:05.436Z,69.06
2022-08-16T02:45:33.216Z,67.12
2022-08-16T02:48:28.870Z,67.63
2022-08-16T02:50:55.296Z,68.39
2022-08-16T02:53:35.478Z,68.68
2022-08-16T02:56:04.086Z,68.86
2022-08-16T02:58:32.666Z,69.04
2022-08-16T03:01:01.102Z,69.12
2022-08-16T03:04:41.058Z,69.53
2022-08-16T03:06:42.263Z,69.80
2022-08-16T03:09:14.780Z,69.56
2022-08-16T03:11:47.559Z,69.61
2022-08-16T03:14:21.075Z,69.48
2022-08-16T03:16:59.238Z,69.31
2022-08-16T03:19:47.431Z,69.46
2022-08-16T03:22:19.540Z,69.88
2022-08-16T03:24:57.264Z,69.99
2022-08-16T03:27:31.187Z,70.01
2022-08-16T03:30:16.333Z,70.05
2022-08-16T03:32:51.623Z,70.20
2022-08-16T03:35:21.932Z,70.01
2022-08-16T03:38:02.519Z,69.88
2022-08-16T03:40:34.058Z,69.64
2022-08-16T03:43:20.142Z,69.57
2022-08-16T03:45:52.513Z,69.05
2022-08-16T03:48:36.798Z,66.53
2022-08-16T03:51:13.088Z,64.98
2022-08-16T03:53:57.743Z,64.37
2022-08-16T03:56:30.339Z,65.72
2022-08-16T03:58:58.902Z,67.53
2022-08-16T04:01:30.021Z,68.82
2022-08-16T04:03:57.983Z,69.49
2022-08-16T04:06:27.732Z,69.89
2022-08-16T04:08:55.726Z,70.09
2022-08-16T04:11:25.337Z,70.30
2022-08-16T04:14:01.619Z,70.20
2022-08-16T04:16:39.402Z,69.63
2022-08-16T04:19:31.462Z,69.92
2022-08-16T04:22:01.043Z,70.00
2022-08-16T04:24:41.738Z,70.06
2022-08-16T04:27:24.515Z,69.85
2022-08-16T04:30:02.571Z,70.09
2022-08-16T04:32:33.846Z,70.18
2022-08-16T04:35:09.320Z,69.45
2022-08-16T04:37:43.170Z,69.79
2022-08-16T04:40:21.550Z,69.96
2022-08-16T04:42:50.777Z,70.12
2022-08-16T04:45:18.832Z,70.20
2022-08-16T04:48:06.483Z,70.18
2022-08-16T04:50:43.486Z,69.61
2022-08-16T04:53:16.589Z,69.81
2022-08-16T04:55:47.375Z,69.48
2022-08-16T04:58:44.379Z,69.45
2022-08-16T05:01:09.691Z,68.31
2022-08-16T05:03:41.986Z,68.13
2022-08-16T05:06:42.461Z,68.66
2022-08-16T05:09:36.509Z,68.70
2022-08-16T05:12:07.173Z,68.99
2022-08-16T05:14:45.707Z,68.83
2022-08-16T05:17:16.729Z,68.70
2022-08-16T05:19:46.870Z,67.08
2022-08-16T05:22:28.414Z,67.64
2022-08-16T05:24:57.325Z,67.67
2022-08-16T05:27:25.392Z,66.88
2022-08-16T05:29:57.795Z,68.18
2022-08-16T05:32:32.677Z,68.37
2022-08-16T05:35:03.704Z,68.19
2022-08-16T05:37:39.718Z,67.34
2022-08-16T05:40:10.077Z,67.35
2022-08-16T05:42:46.146Z,67.73
2022-08-16T05:45:21.836Z,67.50
2022-08-16T05:47:59.502Z,67.22
2022-08-16T05:50:34.295Z,66.71
2022-08-16T05:53:03.611Z,66.18
2022-08-16T05:55:40.895Z,66.63
2022-08-16T05:58:08.982Z,66.04
2022-08-16T06:00:56.862Z,64.89
2022-08-16T06:03:25.429Z,64.86
2022-08-16T06:06:00.925Z,64.64
2022-08-16T06:08:42.379Z,64.74
2022-08-16T06:11:15.250Z,64.80
2022-08-16T06:13:47.495Z,64.96
2022-08-16T06:16:18.824Z,64.94
2022-08-16T06:18:48.596Z,64.99
2022-08-16T06:21:22.767Z,65.19
2022-08-16T06:23:54.701Z,64.84
2022-08-16T06:26:34.837Z,65.12
2022-08-16T06:29:05.180Z,64.96
2022-08-16T06:31:38.385Z,64.99
2022-08-16T06:34:55.535Z,65.00
2022-08-16T06:37:04.067Z,65.00
2022-08-16T06:39:49.446Z,64.22
2022-08-16T06:42:39.211Z,63.68
2022-08-16T06:45:38.109Z,63.62
2022-08-16T06:48:14.408Z,63.63
2022-08-16T06:50:50.206Z,63.67
2022-08-16T06:53:19.016Z,63.70
2022-08-16T06:55:58.630Z,63.86
2022-08-16T06:58:31.629Z,63.94
2022-08-16T07:01:09.616Z,63.91
2022-08-16T07:03:55.442Z,64.01
2022-08-16T07:06:26.686Z,64.11
2022-08-16T07:08:56.884Z,64.07
2022-08-16T07:11:48.052Z,63.92
2022-08-16T07:14:24.298Z,63.34
2022-08-16T07:16:58.368Z,63.18
2022-08-16T07:19:33.648Z,62.39
2022-08-16T07:22:37.569Z,62.75
2022-08-16T07:25:04.215Z,62.70
2022-08-16T07:27:33.822Z,62.59
2022-08-16T07:30:40.438Z,62.63
2022-08-16T07:32:57.759Z,62.57
2022-08-16T07:35:25.587Z,61.71
2022-08-16T07:37:54.347Z,60.90
2022-08-16T07:40:58.397Z,60.57
2022-08-16T07:43:16.026Z,57.83
2022-08-16T07:45:44.781Z,58.31
2022-08-16T07:48:19.534Z,61.25
2022-08-16T07:50:56.451Z,60.84
2022-08-16T07:53:29.023Z,61.60
2022-08-16T07:55:57.776Z,61.10
2022-08-16T07:58:33.828Z,59.82
2022-08-16T08:01:10.741Z,58.47
2022-08-16T08:03:53.658Z,55.96
2022-08-16T08:06:28.568Z,58.42
2022-08-16T08:08:59.501Z,56.79
2022-08-16T08:11:28.671Z,58.02
2022-08-16T08:14:03.547Z,57.48
2022-08-16T08:16:35.639Z,55.33
2022-08-16T08:19:04.178Z,59.64
2022-08-16T08:22:01.268Z,60.27
2022-08-16T08:24:36.108Z,60.20
2022-08-16T08:27:05.449Z,59.82
2022-08-16T08:29:37.574Z,59.60
2022-08-16T08:32:57.377Z,59.31
2022-08-16T08:35:00.364Z,54.79
2022-08-16T08:37:53.924Z,53.89
2022-08-16T08:40:24.542Z,55.50
2022-08-16T08:43:00.313Z,54.73
2022-08-16T08:45:48.542Z,55.32
2022-08-16T08:48:33.546Z,53.67
2022-08-16T08:51:04.438Z,56.16
2022-08-16T08:53:34.327Z,54.44
2022-08-16T08:56:22.550Z,54.98
2022-08-16T08:58:54.753Z,47.94
2022-08-16T09:01:36.718Z,47.97
2022-08-16T09:04:10.823Z,47.47
2022-08-16T09:06:44.346Z,44.66
2022-08-16T09:09:16.992Z,39.34
2022-08-16T09:11:53.363Z,41.11
2022-08-16T09:14:28.680Z,40.74
2022-08-16T09:17:03.893Z,41.10
2022-08-16T09:19:40.860Z,42.56
2022-08-16T09:22:20.924Z,32.84
2022-08-16T09:24:53.633Z,34.17
2022-08-16T09:27:26.542Z,37.07
2022-08-16T09:29:59.807Z,27.70
2022-08-16T09:32:30.692Z,36.32
2022-08-16T09:34:59.705Z,32.73
2022-08-16T09:37:36.463Z,34.68
2022-08-16T09:40:31.668Z,38.41
2022-08-16T09:42:58.753Z,35.80
2022-08-16T09:45:28.989Z,32.61
2022-08-16T09:47:58.442Z,31.83
2022-08-16T09:50:36.978Z,31.68
2022-08-16T09:53:15.589Z,28.01
2022-08-16T09:55:49.095Z,26.57
2022-08-16T09:58:41.727Z,27.75
2022-08-16T10:01:06.389Z,32.26
2022-08-16T10:03:36.690Z,28.90
2022-08-16T10:06:04.849Z,24.55
2022-08-16T10:08:33.702Z,28.85
2022-08-16T10:11:50.397Z,26.18
2022-08-16T10:14:19.912Z,24.39
2022-08-16T10:17:00.026Z,21.40
2022-08-16T10:19:32.063Z,22.18
2022-08-16T10:22:04.977Z,25.18
2022-08-16T10:24:33.764Z,22.60
2022-08-16T10:27:22.261Z,22.44
2022-08-16T10:29:59.479Z,20.86
2022-08-16T10:32:32.313Z,20.67
2022-08-16T10:35:00.300Z,23.10
2022-08-16T10:37:32.547Z,21.66
2022-08-16T10:40:05.301Z,22.29
2022-08-16T10:42:32.988Z,25.82
2022-08-16T10:45:02.822Z,25.49
2022-08-16T10:47:34.381Z,24.10
2022-08-16T10:50:06.939Z,25.69
2022-08-16T10:52:49.649Z,25.89
2022-08-16T10:58:11.708Z,27.84
2022-08-16T11:00:40.857Z,27.37
2022-08-16T11:03:43.060Z,28.78
2022-08-16T11:06:00.798Z,28.67
2022-08-16T11:08:35.183Z,29.49
2022-08-16T11:11:11.701Z,30.75
2022-08-16T11:19:17.545Z,33.45
2022-08-16T11:24:41.752Z,34.81
2022-08-16T11:27:24.114Z,34.53
2022-08-16T11:29:55.746Z,35.60
2022-08-16T11:32:31.181Z,34.97
2022-08-16T11:35:14.138Z,35.52
2022-08-16T11:40:36.373Z,36.81
2022-08-16T11:43:04.718Z,38.08
2022-08-16T11:45:34.926Z,38.95
2022-08-16T11:48:03.617Z,40.55
2022-08-16T11:50:33.587Z,40.85
2022-08-16T11:53:02.467Z,40.06
2022-08-16T11:55:31.759Z,41.76
2022-08-16T11:58:00.514Z,42.29
2022-08-16T12:00:34.205Z,41.90
2022-08-16T12:03:17.086Z,43.09
2022-08-16T12:05:45.313Z,44.29
2022-08-16T12:08:14.966Z,44.68
2022-08-16T12:10:46.696Z,46.09
2022-08-16T12:16:03.712Z,45.19
2022-08-16T12:18:30.123Z,46.11
2022-08-16T12:20:58.314Z,46.44
2022-08-16T12:23:26.266Z,45.37
2022-08-16T12:25:53.289Z,46.95
2022-08-16T12:28:25.322Z,47.58
2022-08-16T12:31:03.937Z,46.57
2022-08-16T12:33:31.837Z,48.34
2022-08-16T12:36:09.919Z,47.96
2022-08-16T12:38:46.667Z,51.96
2022-08-16T12:41:14.394Z,49.06
2022-08-16T12:43:51.373Z,48.49
2022-08-16T12:46:18.827Z,47.24
2022-08-16T12:48:57.065Z,47.83
2022-08-16T12:51:26.182Z,47.84
2022-08-16T12:53:59.983Z,48.00
2022-08-16T12:56:29.158Z,47.81
2022-08-16T12:58:56.268Z,47.25
2022-08-16T13:01:26.082Z,47.34
2022-08-16T13:04:08.188Z,47.26
2022-08-16T13:06:39.263Z,48.17
2022-08-16T13:09:19.407Z,47.99
2022-08-16T13:11:49.225Z,47.11
2022-08-16T13:14:31.206Z,46.79
2022-08-16T13:17:00.277Z,47.09
2022-08-16T13:19:35.142Z,47.30
2022-08-16T13:22:19.537Z,47.73
2022-08-16T13:24:46.190Z,47.63
2022-08-16T13:27:12.886Z,47.95
2022-08-16T13:29:44.011Z,47.97
2022-08-16T13:32:40.226Z,49.13
2022-08-16T13:34:57.775Z,48.70
2022-08-16T13:37:24.001Z,48.82
2022-08-16T13:39:52.406Z,47.89
2022-08-16T13:42:19.835Z,49.87
2022-08-16T13:44:56.595Z,51.49
2022-08-16T13:47:25.257Z,52.24
2022-08-16T13:49:56.576Z,52.08
2022-08-16T13:52:24.259Z,53.14
2022-08-16T13:54:51.351Z,52.32
2022-08-16T13:57:17.679Z,51.31
2022-08-16T13:59:44.262Z,50.77
2022-08-16T14:02:11.836Z,50.45
2022-08-16T14:04:38.593Z,52.71
2022-08-16T14:07:08.369Z,53.73
2022-08-16T14:09:35.836Z,53.42
2022-08-16T14:12:09.592Z,52.13
2022-08-16T14:14:43.650Z,52.50
2022-08-16T14:17:10.075Z,52.89
2022-08-16T14:19:37.345Z,52.67
2022-08-16T14:22:19.696Z,51.78
2022-08-16T14:24:57.897Z,50.56
2022-08-16T14:27:27.145Z,49.58
2022-08-16T14:29:54.220Z,48.74
2022-08-16T14:32:33.219Z,48.83
2022-08-16T14:35:10.985Z,48.49
2022-08-16T14:37:38.175Z,48.57
2022-08-16T14:40:05.423Z,48.66
2022-08-16T14:42:31.749Z,48.26
2022-08-16T14:45:00.230Z,48.36
2022-08-16T14:47:31.577Z,47.77
2022-08-16T14:50:01.368Z,47.63
2022-08-16T14:52:54.166Z,48.58
2022-08-16T14:55:14.618Z,48.45
2022-08-16T14:57:40.966Z,48.73
2022-08-16T15:00:08.942Z,49.06
2022-08-16T15:02:39.073Z,48.32
2022-08-16T15:05:07.368Z,48.78
2022-08-16T15:07:35.948Z,49.24
2022-08-16T15:10:03.822Z,49.82
2022-08-16T15:12:33.483Z,49.73
2022-08-16T15:15:01.223Z,49.59
2022-08-16T15:17:27.557Z,49.07
2022-08-16T15:20:01.058Z,48.13
2022-08-16T15:22:28.892Z,48.11
2022-08-16T15:24:58.675Z,48.80
2022-08-16T15:27:26.023Z,49.24
2022-08-16T15:30:02.497Z,49.60
2022-08-16T15:32:49.640Z,49.04
2022-08-16T15:35:17.311Z,49.43
2022-08-16T15:37:45.691Z,49.74
2022-08-16T15:40:26.529Z,49.36
2022-08-16T15:43:01.466Z,49.68
2022-08-16T15:45:46.069Z,49.34
2022-08-16T15:48:14.222Z,50.07
2022-08-16T15:50:43.828Z,50.20
2022-08-16T15:53:12.555Z,49.78
2022-08-16T15:55:38.973Z,49.00
2022-08-16T15:58:35.535Z,48.91
2022-08-16T16:00:51.661Z,49.53
2022-08-16T16:03:18.789Z,49.87
2022-08-16T16:05:46.254Z,50.87
2022-08-16T16:08:16.061Z,50.88
2022-08-16T16:10:54.449Z,51.51
2022-08-16T16:13:21.220Z,51.40
2022-08-16T16:15:51.726Z,51.37
2022-08-16T16:18:18.306Z,51.58
2022-08-16T16:21:04.756Z,51.75
2022-08-16T16:23:41.091Z,52.15
2022-08-16T16:26:11.719Z,52.52
2022-08-16T16:29:06.700Z,52.88
2022-08-16T16:31:26.587Z,53.25
2022-08-16T16:33:55.277Z,53.62
2022-08-16T16:36:28.179Z,53.84
2022-08-16T16:38:55.777Z,54.48
2022-08-16T16:41:23.950Z,55.28
2022-08-16T16:43:53.416Z,56.02
2022-08-16T16:46:43.076Z,56.11
2022-08-16T16:49:08.099Z,56.25
2022-08-16T16:51:40.671Z,56.94
2022-08-16T16:54:08.009Z,58.59
2022-08-16T16:56:37.579Z,59.20
2022-08-16T16:59:08.373Z,59.67
2022-08-16T17:01:57.439Z,60.05
2022-08-16T17:04:32.738Z,60.19
2022-08-16T17:07:00.251Z,59.86
2022-08-16T17:09:27.004Z,59.83
2022-08-16T17:11:55.512Z,59.78
2022-08-16T17:14:31.905Z,60.01
2022-08-16T17:16:59.008Z,60.35
2022-08-16T17:19:25.247Z,60.17
2022-08-16T17:21:58.760Z,59.95
2022-08-16T17:24:31.434Z,60.72
2022-08-16T17:27:07.056Z,61.33
2022-08-16T17:29:33.528Z,61.29
2022-08-16T17:32:02.333Z,59.63
2022-08-16T17:34:50.687Z,59.89
2022-08-16T17:37:17.420Z,59.91
2022-08-16T17:40:00.071Z,60.19
2022-08-16T17:42:39.086Z,61.31
2022-08-16T17:45:06.521Z,63.14
2022-08-16T17:47:32.777Z,67.83
2022-08-16T17:49:58.969Z,70.36
2022-08-16T17:52:27.796Z,64.51
2022-08-16T17:54:53.978Z,63.66
2022-08-16T17:57:20.289Z,65.49
2022-08-16T17:59:48.370Z,64.65
2022-08-16T18:02:43.313Z,66.40
2022-08-16T18:05:00.982Z,67.48
2022-08-16T18:07:28.230Z,67.75
2022-08-16T18:09:54.660Z,67.69
2022-08-16T18:12:51.296Z,66.79
2022-08-16T18:15:09.290Z,66.87
2022-08-16T18:17:35.599Z,65.87
2022-08-16T18:20:01.926Z,65.93
2022-08-16T18:22:30.833Z,63.25
2022-08-16T18:24:57.372Z,60.56
2022-08-16T18:27:26.883Z,53.94
2022-08-16T18:29:53.798Z,55.01
2022-08-16T18:32:21.897Z,56.42
2022-08-16T18:34:51.361Z,55.29
2022-08-16T18:37:18.417Z,54.42
2022-08-16T18:39:44.822Z,56.10
2022-08-16T18:42:11.942Z,59.30
2022-08-16T18:44:40.361Z,59.38
2022-08-16T18:47:06.748Z,60.24
2022-08-16T18:49:33.497Z,61.65
2022-08-16T18:52:00.089Z,61.82
2022-08-16T18:54:27.428Z,65.38
2022-08-16T18:56:57.569Z,68.59
2022-08-16T18:59:26.885Z,66.75
2022-08-16T19:01:53.306Z,64.17
2022-08-16T19:04:52.072Z,65.84
2022-08-16T19:07:13.448Z,68.17
2022-08-16T19:09:39.872Z,68.10
2022-08-16T19:12:06.374Z,68.20
2022-08-16T19:14:32.614Z,68.31
2022-08-16T19:16:58.786Z,67.93
2022-08-16T19:19:24.993Z,68.37
2022-08-16T19:21:51.294Z,68.18
2022-08-16T19:24:17.760Z,68.04
2022-08-16T19:26:45.373Z,67.98
2022-08-16T19:29:12.057Z,67.85
2022-08-16T19:31:39.954Z,67.66
2022-08-16T19:34:07.635Z,67.62
2022-08-16T19:36:36.100Z,67.68
2022-08-16T19:39:08.579Z,67.42
2022-08-16T19:41:40.784Z,66.43
2022-08-16T19:44:07.201Z,66.59
2022-08-16T19:46:33.719Z,66.81
2022-08-16T19:48:59.931Z,65.81
2022-08-16T19:51:26.404Z,63.64
2022-08-16T19:53:53.265Z,62.96
2022-08-16T19:56:22.433Z,64.51
2022-08-16T19:59:16.375Z,65.86
2022-08-16T20:01:41.197Z,66.52
2022-08-16T20:04:11.440Z,64.52
2022-08-16T20:06:38.907Z,65.68
2022-08-16T20:09:05.587Z,65.88
2022-08-16T20:11:31.792Z,65.80
2022-08-16T20:13:58.706Z,66.28
2022-08-16T20:16:25.103Z,66.43
2022-08-16T20:18:51.270Z,66.46
2022-08-16T20:21:17.990Z,66.18
2022-08-16T20:23:44.135Z,65.89
2022-08-16T20:26:10.301Z,65.92
2022-08-16T20:28:45.025Z,66.47
2022-08-16T20:31:22.184Z,67.00
2022-08-16T20:33:48.672Z,66.89
2022-08-16T20:36:16.238Z,66.76
2022-08-16T20:38:46.030Z,66.92
2022-08-16T20:41:12.273Z,67.38
2022-08-16T20:43:39.187Z,67.61
2022-08-16T20:46:05.406Z,67.25
2022-08-16T20:48:31.610Z,67.20
2022-08-16T20:50:57.786Z,67.27
2022-08-16T20:53:23.953Z,67.36
2022-08-16T20:55:50.296Z,67.14
2022-08-16T20:58:16.680Z,66.91
2022-08-16T21:00:44.597Z,66.89
2022-08-16T21:03:11.568Z,67.26
2022-08-16T21:05:37.859Z,66.92
2022-08-16T21:08:09.699Z,66.98
2022-08-16T21:10:50.386Z,67.23
2022-08-16T21:13:17.244Z,68.00
2022-08-16T21:15:43.961Z,68.34
2022-08-16T21:18:10.385Z,67.90
2022-08-16T21:20:37.227Z,67.96
2022-08-16T21:23:04.729Z,67.30
2022-08-16T21:25:31.404Z,67.65
2022-08-16T21:28:41.020Z,67.59
2022-08-16T21:30:44.025Z,67.65
2022-08-16T21:33:12.083Z,67.52
2022-08-16T21:35:39.379Z,67.14
2022-08-16T21:38:28.979Z,66.34
2022-08-16T21:40:52.068Z,66.24
2022-08-16T21:43:19.464Z,66.52
2022-08-16T21:45:46.417Z,67.14
2022-08-16T21:48:13.143Z,67.80
2022-08-16T21:50:40.331Z,68.17
2022-08-16T21:53:09.899Z,68.29
2022-08-16T21:55:36.547Z,67.17
2022-08-16T21:58:02.935Z,62.13
2022-08-16T22:00:30.004Z,64.63
2022-08-16T22:02:57.285Z,67.69
2022-08-16T22:05:24.068Z,68.15
2022-08-16T22:07:50.607Z,67.66
2022-08-16T22:11:04.505Z,67.86
2022-08-16T22:13:03.987Z,67.97
2022-08-16T22:15:30.181Z,68.14
2022-08-16T22:17:58.317Z,68.19
2022-08-16T22:20:25.257Z,67.75
2022-08-16T22:22:51.783Z,68.09
2022-08-16T22:25:19.126Z,68.20
2022-08-16T22:27:46.513Z,68.13
2022-08-16T22:30:12.970Z,67.89
2022-08-16T22:32:41.704Z,67.21
2022-08-16T22:35:10.805Z,67.63
2022-08-16T22:37:41.230Z,68.16
2022-08-16T22:40:27.364Z,69.23
2022-08-16T22:42:54.538Z,69.20
2022-08-16T22:45:22.540Z,64.83
2022-08-16T22:47:49.284Z,66.23
2022-08-16T22:50:15.557Z,65.72
2022-08-16T22:52:56.456Z,66.59
2022-08-16T22:55:26.008Z,66.98
2022-08-16T22:57:52.915Z,65.85
2022-08-16T23:00:20.360Z,66.09
2022-08-16T23:02:53.478Z,67.20
2022-08-16T23:05:21.752Z,67.75
2022-08-16T23:07:48.392Z,67.97
2022-08-16T23:10:14.796Z,68.07
2022-08-16T23:12:48.397Z,68.08
2022-08-16T23:15:16.395Z,68.14
2022-08-16T23:17:42.907Z,68.54
2022-08-16T23:20:10.444Z,68.63
2022-08-16T23:23:19.014Z,67.71
2022-08-16T23:25:33.346Z,67.44
2022-08-16T23:27:59.695Z,66.33
2022-08-16T23:30:26.659Z,64.13
2022-08-16T23:32:54.027Z,63.34
2022-08-16T23:35:21.861Z,64.50
2022-08-16T23:37:49.609Z,63.33
2022-08-16T23:40:16.113Z,64.09
2022-08-16T23:43:03.858Z,63.54
2022-08-16T23:45:34.423Z,65.39
2022-08-16T23:48:00.699Z,66.90
2022-08-16T23:50:27.273Z,68.09
2022-08-16T23:52:55.821Z,68.65
2022-08-16T23:55:22.363Z,68.49
2022-08-16T23:57:49.220Z,69.61
